sensor_id;sensor_type;location;lat;lon;timestamp;P1;durP1;ratioP1;P2;durP2;ratioP2
76801;SDS011;66403;50.832;10.950;2023-02-28T00:03:05;3.08;;;2.20;;
76801;SDS011;66403;50.832;10.950;2023-02-28T00:08:06;3.63;;;2.60;;
76801;SDS011;66403;50.832;10.950;2023-02-28T00:13:07;6.03;;;2.75;;
76801;SDS011;66403;50.832;10.950;2023-02-28T00:18:07;2.53;;;2.08;;
76801;SDS011;66403;50.832;10.950;2023-02-28T00:23:08;5.13;;;2.97;;
76801;SDS011;66403;50.832;10.950;2023-02-28T00:28:08;3.35;;;2.78;;
76801;SDS011;66403;50.832;10.950;2023-02-28T00:33:09;3.65;;;2.00;;
76801;SDS011;66403;50.832;10.950;2023-02-28T00:38:09;3.15;;;2.05;;
76801;SDS011;66403;50.832;10.950;2023-02-28T00:43:10;3.42;;;2.03;;
76801;SDS011;66403;50.832;10.950;2023-02-28T00:48:10;2.50;;;1.63;;
76801;SDS011;66403;50.832;10.950;2023-02-28T00:53:12;2.70;;;1.80;;
76801;SDS011;66403;50.832;10.950;2023-02-28T00:58:13;2.95;;;2.15;;
76801;SDS011;66403;50.832;10.950;2023-02-28T01:03:14;3.88;;;2.67;;
76801;SDS011;66403;50.832;10.950;2023-02-28T01:08:17;4.78;;;2.15;;
76801;SDS011;66403;50.832;10.950;2023-02-28T01:13:18;2.58;;;2.22;;
76801;SDS011;66403;50.832;10.950;2023-02-28T01:18:19;4.35;;;2.42;;
76801;SDS011;66403;50.832;10.950;2023-02-28T01:23:21;3.15;;;1.95;;
76801;SDS011;66403;50.832;10.950;2023-02-28T01:28:23;4.20;;;2.20;;
76801;SDS011;66403;50.832;10.950;2023-02-28T01:33:24;4.18;;;2.40;;
76801;SDS011;66403;50.832;10.950;2023-02-28T01:38:24;2.55;;;1.83;;
76801;SDS011;66403;50.832;10.950;2023-02-28T01:43:26;3.65;;;1.75;;
76801;SDS011;66403;50.832;10.950;2023-02-28T01:48:32;3.53;;;2.25;;
76801;SDS011;66403;50.832;10.950;2023-02-28T01:53:35;3.30;;;2.35;;
76801;SDS011;66403;50.832;10.950;2023-02-28T01:58:38;3.65;;;2.28;;
76801;SDS011;66403;50.832;10.950;2023-02-28T02:03:38;3.65;;;2.65;;
76801;SDS011;66403;50.832;10.950;2023-02-28T02:08:39;2.50;;;2.25;;
76801;SDS011;66403;50.832;10.950;2023-02-28T02:13:56;3.45;;;2.78;;
76801;SDS011;66403;50.832;10.950;2023-02-28T02:40:59;4.23;;;2.17;;
76801;SDS011;66403;50.832;10.950;2023-02-28T02:46:13;4.07;;;2.90;;
76801;SDS011;66403;50.832;10.950;2023-02-28T02:51:19;3.88;;;2.38;;
76801;SDS011;66403;50.832;10.950;2023-02-28T02:56:23;3.20;;;2.03;;
76801;SDS011;66403;50.832;10.950;2023-02-28T03:01:26;3.55;;;2.45;;
76801;SDS011;66403;50.832;10.950;2023-02-28T03:06:29;3.25;;;1.98;;
76801;SDS011;66403;50.832;10.950;2023-02-28T03:11:29;3.53;;;2.13;;
76801;SDS011;66403;50.832;10.950;2023-02-28T03:21:40;3.92;;;2.55;;
76801;SDS011;66403;50.832;10.950;2023-02-28T03:26:45;3.30;;;2.17;;
76801;SDS011;66403;50.832;10.950;2023-02-28T03:32:00;6.85;;;2.95;;
76801;SDS011;66403;50.832;10.950;2023-02-28T03:37:15;4.30;;;2.50;;
76801;SDS011;66403;50.832;10.950;2023-02-28T03:42:19;3.70;;;2.50;;
76801;SDS011;66403;50.832;10.950;2023-02-28T03:47:25;6.35;;;2.13;;
76801;SDS011;66403;50.832;10.950;2023-02-28T03:52:30;4.80;;;2.75;;
76801;SDS011;66403;50.832;10.950;2023-02-28T03:57:35;4.68;;;3.03;;
76801;SDS011;66403;50.832;10.950;2023-02-28T04:02:39;4.13;;;3.28;;
76801;SDS011;66403;50.832;10.950;2023-02-28T04:07:39;6.00;;;3.17;;
76801;SDS011;66403;50.832;10.950;2023-02-28T04:12:40;5.03;;;2.72;;
76801;SDS011;66403;50.832;10.950;2023-02-28T04:17:40;3.67;;;2.13;;
76801;SDS011;66403;50.832;10.950;2023-02-28T04:22:41;3.80;;;2.58;;
76801;SDS011;66403;50.832;10.950;2023-02-28T04:27:41;4.20;;;2.17;;
76801;SDS011;66403;50.832;10.950;2023-02-28T04:32:44;3.28;;;2.28;;
76801;SDS011;66403;50.832;10.950;2023-02-28T04:37:44;5.68;;;3.15;;
76801;SDS011;66403;50.832;10.950;2023-02-28T04:42:45;5.22;;;2.97;;
76801;SDS011;66403;50.832;10.950;2023-02-28T04:47:45;5.18;;;3.58;;
76801;SDS011;66403;50.832;10.950;2023-02-28T04:52:46;3.88;;;2.72;;
76801;SDS011;66403;50.832;10.950;2023-02-28T04:57:46;3.25;;;2.55;;
76801;SDS011;66403;50.832;10.950;2023-02-28T05:02:47;7.22;;;3.20;;
76801;SDS011;66403;50.832;10.950;2023-02-28T05:07:47;4.13;;;3.25;;
76801;SDS011;66403;50.832;10.950;2023-02-28T05:12:47;3.83;;;2.10;;
76801;SDS011;66403;50.832;10.950;2023-02-28T05:17:48;14.65;;;7.65;;
76801;SDS011;66403;50.832;10.950;2023-02-28T05:22:49;4.22;;;2.72;;
76801;SDS011;66403;50.832;10.950;2023-02-28T05:27:49;3.92;;;2.95;;
76801;SDS011;66403;50.832;10.950;2023-02-28T05:32:51;5.03;;;3.03;;
76801;SDS011;66403;50.832;10.950;2023-02-28T05:37:51;5.32;;;3.42;;
76801;SDS011;66403;50.832;10.950;2023-02-28T05:42:52;5.28;;;2.85;;
76801;SDS011;66403;50.832;10.950;2023-02-28T05:47:53;6.80;;;3.80;;
76801;SDS011;66403;50.832;10.950;2023-02-28T05:52:53;4.88;;;3.13;;
76801;SDS011;66403;50.832;10.950;2023-02-28T05:57:54;6.15;;;2.90;;
76801;SDS011;66403;50.832;10.950;2023-02-28T06:02:54;4.80;;;2.83;;
76801;SDS011;66403;50.832;10.950;2023-02-28T06:07:57;4.47;;;2.80;;
76801;SDS011;66403;50.832;10.950;2023-02-28T06:13:01;3.70;;;2.53;;
76801;SDS011;66403;50.832;10.950;2023-02-28T06:18:04;2.90;;;2.17;;
76801;SDS011;66403;50.832;10.950;2023-02-28T06:23:05;7.20;;;3.17;;
76801;SDS011;66403;50.832;10.950;2023-02-28T06:28:05;4.88;;;2.53;;
76801;SDS011;66403;50.832;10.950;2023-02-28T06:33:06;4.47;;;2.97;;
76801;SDS011;66403;50.832;10.950;2023-02-28T06:38:06;7.35;;;2.47;;
76801;SDS011;66403;50.832;10.950;2023-02-28T06:43:07;3.47;;;2.33;;
76801;SDS011;66403;50.832;10.950;2023-02-28T06:48:07;3.08;;;1.83;;
76801;SDS011;66403;50.832;10.950;2023-02-28T06:53:07;5.43;;;2.22;;
76801;SDS011;66403;50.832;10.950;2023-02-28T06:58:08;6.55;;;2.55;;
76801;SDS011;66403;50.832;10.950;2023-02-28T07:03:15;4.32;;;2.67;;
76801;SDS011;66403;50.832;10.950;2023-02-28T07:08:15;6.32;;;2.20;;
76801;SDS011;66403;50.832;10.950;2023-02-28T07:13:16;3.63;;;2.38;;
76801;SDS011;66403;50.832;10.950;2023-02-28T07:18:16;6.35;;;3.22;;
76801;SDS011;66403;50.832;10.950;2023-02-28T07:23:16;6.57;;;2.72;;
76801;SDS011;66403;50.832;10.950;2023-02-28T07:28:17;3.95;;;2.60;;
76801;SDS011;66403;50.832;10.950;2023-02-28T07:33:17;4.03;;;3.03;;
76801;SDS011;66403;50.832;10.950;2023-02-28T07:38:18;8.80;;;4.00;;
76801;SDS011;66403;50.832;10.950;2023-02-28T07:43:18;3.88;;;3.15;;
76801;SDS011;66403;50.832;10.950;2023-02-28T07:48:19;5.85;;;3.72;;
76801;SDS011;66403;50.832;10.950;2023-02-28T07:53:19;5.75;;;3.30;;
76801;SDS011;66403;50.832;10.950;2023-02-28T07:58:20;5.05;;;3.45;;
76801;SDS011;66403;50.832;10.950;2023-02-28T08:03:21;7.18;;;3.88;;
76801;SDS011;66403;50.832;10.950;2023-02-28T08:08:22;9.18;;;4.53;;
76801;SDS011;66403;50.832;10.950;2023-02-28T08:13:22;7.70;;;3.03;;
76801;SDS011;66403;50.832;10.950;2023-02-28T08:18:23;4.28;;;2.42;;
76801;SDS011;66403;50.832;10.950;2023-02-28T08:23:24;4.45;;;2.50;;
76801;SDS011;66403;50.832;10.950;2023-02-28T08:28:25;4.75;;;3.03;;
76801;SDS011;66403;50.832;10.950;2023-02-28T08:33:25;5.00;;;3.40;;
76801;SDS011;66403;50.832;10.950;2023-02-28T08:38:27;3.35;;;2.75;;
76801;SDS011;66403;50.832;10.950;2023-02-28T08:43:28;4.97;;;2.80;;
76801;SDS011;66403;50.832;10.950;2023-02-28T08:48:29;6.32;;;3.47;;
76801;SDS011;66403;50.832;10.950;2023-02-28T08:53:31;8.48;;;3.60;;
76801;SDS011;66403;50.832;10.950;2023-02-28T08:58:32;5.50;;;3.50;;
76801;SDS011;66403;50.832;10.950;2023-02-28T09:03:33;7.53;;;4.05;;
76801;SDS011;66403;50.832;10.950;2023-02-28T09:08:34;7.47;;;3.65;;
76801;SDS011;66403;50.832;10.950;2023-02-28T09:13:34;6.40;;;4.32;;
76801;SDS011;66403;50.832;10.950;2023-02-28T09:18:36;7.70;;;3.53;;
76801;SDS011;66403;50.832;10.950;2023-02-28T09:23:39;7.97;;;4.60;;
76801;SDS011;66403;50.832;10.950;2023-02-28T09:28:40;6.40;;;4.68;;
76801;SDS011;66403;50.832;10.950;2023-02-28T09:33:41;4.45;;;3.70;;
76801;SDS011;66403;50.832;10.950;2023-02-28T09:38:41;6.28;;;3.60;;
76801;SDS011;66403;50.832;10.950;2023-02-28T09:43:44;6.97;;;3.45;;
76801;SDS011;66403;50.832;10.950;2023-02-28T09:48:47;6.75;;;3.08;;
76801;SDS011;66403;50.832;10.950;2023-02-28T09:53:48;6.22;;;2.97;;
76801;SDS011;66403;50.832;10.950;2023-02-28T10:04:08;3.05;;;2.75;;
76801;SDS011;66403;50.832;10.950;2023-02-28T10:09:27;4.40;;;3.10;;
76801;SDS011;66403;50.832;10.950;2023-02-28T10:14:31;3.90;;;2.88;;
76801;SDS011;66403;50.832;10.950;2023-02-28T10:19:42;4.95;;;3.33;;
76801;SDS011;66403;50.832;10.950;2023-02-28T10:24:50;4.95;;;2.85;;
76801;SDS011;66403;50.832;10.950;2023-02-28T10:34:55;6.88;;;3.97;;
76801;SDS011;66403;50.832;10.950;2023-02-28T10:40:00;4.43;;;2.75;;
76801;SDS011;66403;50.832;10.950;2023-02-28T10:45:14;4.32;;;3.05;;
76801;SDS011;66403;50.832;10.950;2023-02-28T10:50:29;4.85;;;3.80;;
76801;SDS011;66403;50.832;10.950;2023-02-28T10:55:32;6.20;;;3.60;;
76801;SDS011;66403;50.832;10.950;2023-02-28T11:00:34;4.25;;;3.05;;
76801;SDS011;66403;50.832;10.950;2023-02-28T11:05:35;4.55;;;3.28;;
76801;SDS011;66403;50.832;10.950;2023-02-28T11:10:36;5.68;;;3.92;;
76801;SDS011;66403;50.832;10.950;2023-02-28T11:15:37;4.82;;;2.97;;
76801;SDS011;66403;50.832;10.950;2023-02-28T11:20:37;4.13;;;3.47;;
76801;SDS011;66403;50.832;10.950;2023-02-28T11:25:38;4.18;;;3.45;;
76801;SDS011;66403;50.832;10.950;2023-02-28T11:30:40;5.30;;;3.17;;
76801;SDS011;66403;50.832;10.950;2023-02-28T11:35:41;5.47;;;4.07;;
76801;SDS011;66403;50.832;10.950;2023-02-28T11:40:47;6.95;;;3.75;;
76801;SDS011;66403;50.832;10.950;2023-02-28T11:56:25;4.47;;;3.45;;
76801;SDS011;66403;50.832;10.950;2023-02-28T12:01:47;3.85;;;3.10;;
76801;SDS011;66403;50.832;10.950;2023-02-28T12:28:01;4.72;;;4.32;;
76801;SDS011;66403;50.832;10.950;2023-02-28T12:33:09;4.40;;;3.88;;
76801;SDS011;66403;50.832;10.950;2023-02-28T12:38:12;5.35;;;3.92;;
76801;SDS011;66403;50.832;10.950;2023-02-28T12:43:17;5.53;;;4.05;;
76801;SDS011;66403;50.832;10.950;2023-02-28T12:48:42;5.75;;;4.32;;
76801;SDS011;66403;50.832;10.950;2023-02-28T12:53:52;6.25;;;3.97;;
76801;SDS011;66403;50.832;10.950;2023-02-28T12:59:20;4.85;;;4.25;;
76801;SDS011;66403;50.832;10.950;2023-02-28T13:04:28;6.53;;;4.00;;
76801;SDS011;66403;50.832;10.950;2023-02-28T13:09:35;4.25;;;3.50;;
76801;SDS011;66403;50.832;10.950;2023-02-28T13:14:36;5.80;;;4.30;;
76801;SDS011;66403;50.832;10.950;2023-02-28T13:19:39;5.53;;;4.00;;
76801;SDS011;66403;50.832;10.950;2023-02-28T13:25:01;5.07;;;3.90;;
76801;SDS011;66403;50.832;10.950;2023-02-28T13:30:49;13.70;;;5.05;;
76801;SDS011;66403;50.832;10.950;2023-02-28T13:35:43;7.47;;;5.25;;
76801;SDS011;66403;50.832;10.950;2023-02-28T13:40:44;6.57;;;5.15;;
76801;SDS011;66403;50.832;10.950;2023-02-28T13:56:34;5.80;;;4.22;;
76801;SDS011;66403;50.832;10.950;2023-02-28T14:06:52;6.00;;;4.40;;
76801;SDS011;66403;50.832;10.950;2023-02-28T14:11:54;6.68;;;4.30;;
76801;SDS011;66403;50.832;10.950;2023-02-28T14:16:55;7.97;;;5.20;;
76801;SDS011;66403;50.832;10.950;2023-02-28T14:27:29;7.30;;;5.00;;
76801;SDS011;66403;50.832;10.950;2023-02-28T14:32:37;7.68;;;5.28;;
76801;SDS011;66403;50.832;10.950;2023-02-28T14:37:42;6.47;;;4.25;;
76801;SDS011;66403;50.832;10.950;2023-02-28T14:42:46;6.25;;;4.85;;
76801;SDS011;66403;50.832;10.950;2023-02-28T14:47:49;7.65;;;4.57;;
76801;SDS011;66403;50.832;10.950;2023-02-28T14:52:53;6.15;;;4.80;;
76801;SDS011;66403;50.832;10.950;2023-02-28T14:57:59;5.53;;;4.50;;
76801;SDS011;66403;50.832;10.950;2023-02-28T15:03:18;7.03;;;5.00;;
76801;SDS011;66403;50.832;10.950;2023-02-28T15:08:20;8.02;;;4.80;;
76801;SDS011;66403;50.832;10.950;2023-02-28T15:13:20;5.60;;;5.00;;
76801;SDS011;66403;50.832;10.950;2023-02-28T15:23:34;6.40;;;4.97;;
76801;SDS011;66403;50.832;10.950;2023-02-28T15:28:35;10.45;;;6.30;;
76801;SDS011;66403;50.832;10.950;2023-02-28T15:33:36;6.03;;;4.63;;
76801;SDS011;66403;50.832;10.950;2023-02-28T15:38:36;6.75;;;4.90;;
76801;SDS011;66403;50.832;10.950;2023-02-28T15:43:37;8.30;;;4.85;;
76801;SDS011;66403;50.832;10.950;2023-02-28T15:48:50;8.10;;;4.93;;
76801;SDS011;66403;50.832;10.950;2023-02-28T15:54:00;5.75;;;4.78;;
76801;SDS011;66403;50.832;10.950;2023-02-28T15:59:05;6.63;;;4.90;;
76801;SDS011;66403;50.832;10.950;2023-02-28T16:04:13;7.70;;;4.47;;
76801;SDS011;66403;50.832;10.950;2023-02-28T16:09:15;7.10;;;5.13;;
76801;SDS011;66403;50.832;10.950;2023-02-28T16:14:17;7.28;;;4.55;;
76801;SDS011;66403;50.832;10.950;2023-02-28T16:19:19;9.10;;;5.10;;
76801;SDS011;66403;50.832;10.950;2023-02-28T16:24:20;7.10;;;5.00;;
76801;SDS011;66403;50.832;10.950;2023-02-28T16:29:28;10.40;;;5.07;;
76801;SDS011;66403;50.832;10.950;2023-02-28T16:34:30;9.10;;;5.75;;
76801;SDS011;66403;50.832;10.950;2023-02-28T16:39:30;8.27;;;5.03;;
76801;SDS011;66403;50.832;10.950;2023-02-28T16:44:32;7.38;;;4.68;;
76801;SDS011;66403;50.832;10.950;2023-02-28T16:49:33;8.75;;;5.60;;
76801;SDS011;66403;50.832;10.950;2023-02-28T16:54:34;9.00;;;5.13;;
76801;SDS011;66403;50.832;10.950;2023-02-28T16:59:34;7.18;;;4.72;;
76801;SDS011;66403;50.832;10.950;2023-02-28T17:04:35;11.63;;;5.18;;
76801;SDS011;66403;50.832;10.950;2023-02-28T17:09:35;7.45;;;4.93;;
76801;SDS011;66403;50.832;10.950;2023-02-28T17:14:36;8.13;;;5.45;;
76801;SDS011;66403;50.832;10.950;2023-02-28T17:19:37;10.82;;;5.35;;
76801;SDS011;66403;50.832;10.950;2023-02-28T17:24:38;8.00;;;5.20;;
76801;SDS011;66403;50.832;10.950;2023-02-28T17:29:38;9.55;;;4.80;;
76801;SDS011;66403;50.832;10.950;2023-02-28T17:34:39;9.30;;;5.60;;
76801;SDS011;66403;50.832;10.950;2023-02-28T17:39:39;10.23;;;5.85;;
76801;SDS011;66403;50.832;10.950;2023-02-28T17:44:40;9.38;;;4.95;;
76801;SDS011;66403;50.832;10.950;2023-02-28T17:49:40;8.10;;;5.47;;
76801;SDS011;66403;50.832;10.950;2023-02-28T17:54:41;10.07;;;5.90;;
76801;SDS011;66403;50.832;10.950;2023-02-28T17:59:43;10.38;;;5.93;;
76801;SDS011;66403;50.832;10.950;2023-02-28T18:04:43;10.48;;;6.72;;
76801;SDS011;66403;50.832;10.950;2023-02-28T18:09:44;16.13;;;6.80;;
76801;SDS011;66403;50.832;10.950;2023-02-28T18:14:44;12.32;;;6.80;;
76801;SDS011;66403;50.832;10.950;2023-02-28T18:19:45;13.60;;;10.23;;
76801;SDS011;66403;50.832;10.950;2023-02-28T18:24:45;21.67;;;10.77;;
76801;SDS011;66403;50.832;10.950;2023-02-28T18:29:46;14.48;;;8.68;;
76801;SDS011;66403;50.832;10.950;2023-02-28T18:34:48;11.70;;;7.20;;
76801;SDS011;66403;50.832;10.950;2023-02-28T18:39:48;9.40;;;6.63;;
76801;SDS011;66403;50.832;10.950;2023-02-28T18:44:49;17.65;;;9.40;;
76801;SDS011;66403;50.832;10.950;2023-02-28T18:49:50;16.73;;;10.88;;
76801;SDS011;66403;50.832;10.950;2023-02-28T18:54:50;25.27;;;10.98;;
76801;SDS011;66403;50.832;10.950;2023-02-28T18:59:51;17.17;;;10.38;;
76801;SDS011;66403;50.832;10.950;2023-02-28T19:04:51;11.63;;;6.05;;
76801;SDS011;66403;50.832;10.950;2023-02-28T19:09:52;11.65;;;7.68;;
76801;SDS011;66403;50.832;10.950;2023-02-28T19:14:52;12.70;;;7.95;;
76801;SDS011;66403;50.832;10.950;2023-02-28T19:19:52;12.15;;;6.90;;
76801;SDS011;66403;50.832;10.950;2023-02-28T19:24:53;14.10;;;6.07;;
76801;SDS011;66403;50.832;10.950;2023-02-28T19:29:53;12.48;;;7.38;;
76801;SDS011;66403;50.832;10.950;2023-02-28T19:34:54;13.27;;;6.63;;
76801;SDS011;66403;50.832;10.950;2023-02-28T19:39:55;13.43;;;8.05;;
76801;SDS011;66403;50.832;10.950;2023-02-28T19:44:56;17.40;;;7.88;;
76801;SDS011;66403;50.832;10.950;2023-02-28T19:49:56;15.57;;;8.90;;
76801;SDS011;66403;50.832;10.950;2023-02-28T19:54:56;13.73;;;8.40;;
76801;SDS011;66403;50.832;10.950;2023-02-28T19:59:57;18.23;;;9.65;;
76801;SDS011;66403;50.832;10.950;2023-02-28T20:04:58;18.30;;;10.98;;
76801;SDS011;66403;50.832;10.950;2023-02-28T20:09:59;17.70;;;10.75;;
76801;SDS011;66403;50.832;10.950;2023-02-28T20:15:00;13.73;;;8.77;;
76801;SDS011;66403;50.832;10.950;2023-02-28T20:20:00;12.55;;;7.57;;
76801;SDS011;66403;50.832;10.950;2023-02-28T20:25:01;12.18;;;7.57;;
76801;SDS011;66403;50.832;10.950;2023-02-28T20:30:02;11.93;;;7.05;;
76801;SDS011;66403;50.832;10.950;2023-02-28T20:35:03;8.13;;;6.10;;
76801;SDS011;66403;50.832;10.950;2023-02-28T20:40:05;9.82;;;6.07;;
76801;SDS011;66403;50.832;10.950;2023-02-28T20:45:07;12.43;;;7.05;;
76801;SDS011;66403;50.832;10.950;2023-02-28T20:50:09;11.48;;;6.88;;
76801;SDS011;66403;50.832;10.950;2023-02-28T20:55:10;11.15;;;7.07;;
76801;SDS011;66403;50.832;10.950;2023-02-28T21:00:11;14.43;;;7.50;;
76801;SDS011;66403;50.832;10.950;2023-02-28T21:05:15;10.65;;;6.72;;
76801;SDS011;66403;50.832;10.950;2023-02-28T21:10:16;11.85;;;7.20;;
76801;SDS011;66403;50.832;10.950;2023-02-28T21:15:17;15.80;;;7.60;;
76801;SDS011;66403;50.832;10.950;2023-02-28T21:20:18;14.60;;;8.40;;
76801;SDS011;66403;50.832;10.950;2023-02-28T21:25:21;16.35;;;8.48;;
76801;SDS011;66403;50.832;10.950;2023-02-28T21:30:22;15.55;;;8.57;;
76801;SDS011;66403;50.832;10.950;2023-02-28T21:35:22;14.88;;;8.10;;
76801;SDS011;66403;50.832;10.950;2023-02-28T21:40:23;10.73;;;6.25;;
76801;SDS011;66403;50.832;10.950;2023-02-28T21:45:23;15.15;;;7.00;;
76801;SDS011;66403;50.832;10.950;2023-02-28T21:50:24;9.95;;;5.22;;
76801;SDS011;66403;50.832;10.950;2023-02-28T21:55:24;8.73;;;6.43;;
76801;SDS011;66403;50.832;10.950;2023-02-28T22:00:25;14.57;;;6.32;;
76801;SDS011;66403;50.832;10.950;2023-02-28T22:05:25;9.20;;;5.03;;
76801;SDS011;66403;50.832;10.950;2023-02-28T22:10:28;8.43;;;5.43;;
76801;SDS011;66403;50.832;10.950;2023-02-28T22:15:29;7.15;;;5.10;;
76801;SDS011;66403;50.832;10.950;2023-02-28T22:20:30;7.63;;;6.28;;
76801;SDS011;66403;50.832;10.950;2023-02-28T22:25:31;12.38;;;6.70;;
76801;SDS011;66403;50.832;10.950;2023-02-28T22:30:31;12.52;;;7.13;;
76801;SDS011;66403;50.832;10.950;2023-02-28T22:35:31;12.15;;;7.38;;
76801;SDS011;66403;50.832;10.950;2023-02-28T22:40:32;12.88;;;6.55;;
76801;SDS011;66403;50.832;10.950;2023-02-28T22:45:39;14.05;;;7.63;;
76801;SDS011;66403;50.832;10.950;2023-02-28T22:50:40;9.77;;;7.18;;
76801;SDS011;66403;50.832;10.950;2023-02-28T22:55:40;11.25;;;6.78;;
76801;SDS011;66403;50.832;10.950;2023-02-28T23:00:41;10.88;;;6.03;;
76801;SDS011;66403;50.832;10.950;2023-02-28T23:05:41;10.18;;;6.10;;
76801;SDS011;66403;50.832;10.950;2023-02-28T23:10:42;12.40;;;6.63;;
76801;SDS011;66403;50.832;10.950;2023-02-28T23:15:43;16.17;;;7.95;;
76801;SDS011;66403;50.832;10.950;2023-02-28T23:20:43;11.10;;;7.70;;
76801;SDS011;66403;50.832;10.950;2023-02-28T23:25:44;11.50;;;6.43;;
76801;SDS011;66403;50.832;10.950;2023-02-28T23:30:44;11.82;;;5.68;;
76801;SDS011;66403;50.832;10.950;2023-02-28T23:35:45;15.65;;;8.43;;
76801;SDS011;66403;50.832;10.950;2023-02-28T23:40:45;13.27;;;6.57;;
76801;SDS011;66403;50.832;10.950;2023-02-28T23:45:53;13.20;;;7.43;;
76801;SDS011;66403;50.832;10.950;2023-02-28T23:50:54;14.38;;;7.70;;
76801;SDS011;66403;50.832;10.950;2023-02-28T23:55:57;15.23;;;6.60;;
